Time;durP1;ratioP1;P1;durP2;ratioP2;P2;SDS_P1;SDS_P2;PMS_P1;PMS_P2;Temp;Humidity;BMP_temperature;BMP_pressure;BME280_temperature;BME280_humidity;BME280_pressure;Samples;Min_cycle;Max_cycle;Signal;HPM_P1;HPM_P2
2022/02/23 00:00:32;;;;;;;16.38;11.50;;;19.30;94.10;;;;;;4166053;28;20053;-63
2022/02/23 00:02:39;;;;;;;16.80;11.23;;;19.30;94.20;;;;;;4175027;28;20040;-65
2022/02/23 00:04:45;;;;;;;13.90;9.27;;;19.30;94.00;;;;;;4171795;28;20044;-64
2022/02/23 00:06:54;;;;;;;13.40;8.98;;;19.40;93.60;;;;;;4172439;28;20052;-64
2022/02/23 00:09:01;;;;;;;10.73;8.95;;;19.40;93.40;;;;;;4164513;28;20045;-64
2022/02/23 00:11:06;;;;;;;11.90;7.78;;;19.40;93.30;;;;;;4167917;28;20648;-64
2022/02/23 00:13:13;;;;;;;13.10;8.13;;;19.40;92.90;;;;;;4174620;28;20124;-65
2022/02/23 00:15:17;;;;;;;13.07;8.40;;;19.40;93.20;;;;;;4165394;28;20407;-65
2022/02/23 00:17:25;;;;;;;11.25;7.53;;;19.30;93.30;;;;;;4167825;28;20503;-65
2022/02/23 00:19:31;;;;;;;10.70;7.55;;;19.40;93.10;;;;;;4171152;28;20099;-64
2022/02/23 00:21:38;;;;;;;10.68;7.30;;;19.40;93.00;;;;;;4168971;28;20045;-65
2022/02/23 00:23:42;;;;;;;10.05;7.78;;;19.40;92.90;;;;;;4170717;28;20106;-66
2022/02/23 00:25:49;;;;;;;16.45;7.60;;;19.50;92.80;;;;;;4164124;28;20037;-66
2022/02/23 00:27:55;;;;;;;9.65;6.82;;;19.50;93.00;;;;;;4170301;28;20037;-65
2022/02/23 00:30:00;;;;;;;9.65;6.97;;;19.60;92.90;;;;;;4169339;28;20045;-65
2022/02/23 00:32:05;;;;;;;8.82;6.72;;;19.60;92.70;;;;;;4148955;28;20050;-65
2022/02/23 00:34:12;;;;;;;8.80;6.88;;;19.70;92.50;;;;;;4171218;28;20045;-66
2022/02/23 00:36:17;;;;;;;8.55;6.53;;;19.60;92.70;;;;;;4173301;28;20543;-65
2022/02/23 00:38:25;;;;;;;9.20;7.13;;;19.60;92.70;;;;;;4167627;28;20559;-66
2022/02/23 00:40:30;;;;;;;8.68;6.80;;;19.60;93.00;;;;;;4165090;28;20053;-66
2022/02/23 00:42:34;;;;;;;9.85;6.95;;;19.70;92.80;;;;;;4174875;28;20087;-66
2022/02/23 00:44:41;;;;;;;10.95;6.38;;;19.70;92.70;;;;;;4168280;28;20062;-66
2022/02/23 00:46:47;;;;;;;9.15;6.18;;;19.70;92.60;;;;;;4158906;28;20041;-66
2022/02/23 00:48:53;;;;;;;9.27;6.20;;;19.80;92.50;;;;;;4161728;28;20503;-66
2022/02/23 00:51:00;;;;;;;11.68;5.85;;;19.80;92.60;;;;;;4165410;28;20090;-66
2022/02/23 00:53:07;;;;;;;8.07;6.18;;;19.90;92.60;;;;;;4164905;28;20053;-67
2022/02/23 00:55:11;;;;;;;9.70;6.35;;;19.90;92.70;;;;;;4165158;28;20045;-66
2022/02/23 00:57:18;;;;;;;10.35;6.45;;;19.90;92.90;;;;;;4166680;28;20504;-66
2022/02/23 00:59:25;;;;;;;8.75;6.47;;;19.70;93.20;;;;;;4169960;28;20053;-66
2022/02/23 01:01:33;;;;;;;8.70;6.80;;;19.70;93.30;;;;;;4168236;28;20037;-66
2022/02/23 01:03:40;;;;;;;10.23;6.53;;;19.70;93.40;;;;;;4170668;28;20524;-66
2022/02/23 01:05:46;;;;;;;9.45;6.85;;;19.70;93.40;;;;;;4166327;28;20056;-66
2022/02/23 01:07:53;;;;;;;9.10;6.90;;;19.80;93.30;;;;;;4160399;28;20052;-64
2022/02/23 01:09:59;;;;;;;8.95;6.43;;;19.40;93.40;;;;;;4170221;28;20052;-64
2022/02/23 01:12:07;;;;;;;9.90;6.13;;;19.30;93.70;;;;;;4168883;28;20056;-66
2022/02/23 01:14:11;;;;;;;9.85;5.55;;;19.20;93.40;;;;;;4170055;28;20073;-66
2022/02/23 01:16:18;;;;;;;8.30;5.78;;;19.50;93.10;;;;;;4166060;28;20144;-66
2022/02/23 01:18:25;;;;;;;10.70;6.40;;;19.50;92.90;;;;;;4167692;28;20060;-66
2022/02/23 01:20:29;;;;;;;8.32;6.18;;;19.50;93.10;;;;;;4166024;28;20354;-65
2022/02/23 01:22:38;;;;;;;9.05;6.40;;;19.50;93.30;;;;;;4170102;28;20574;-66
2022/02/23 01:24:44;;;;;;;10.75;6.85;;;19.60;93.40;;;;;;4170132;28;20048;-66
2022/02/23 01:26:48;;;;;;;15.52;7.25;;;19.50;93.80;;;;;;4169790;28;20049;-66
2022/02/23 01:28:55;;;;;;;9.60;6.97;;;19.60;93.70;;;;;;4169699;28;20037;-66
2022/02/23 01:31:01;;;;;;;12.93;6.07;;;19.70;93.70;;;;;;4167486;28;20539;-67
2022/02/23 01:33:07;;;;;;;8.52;6.07;;;19.70;92.60;;;;;;4170107;28;20061;-66
2022/02/23 01:35:14;;;;;;;7.55;6.15;;;19.70;91.70;;;;;;4164847;28;20055;-66
2022/02/23 01:37:21;;;;;;;9.85;6.70;;;19.40;91.80;;;;;;4168556;28;20103;-66
2022/02/23 01:39:25;;;;;;;10.38;6.20;;;19.70;91.70;;;;;;4166329;28;20104;-67
2022/02/23 01:41:32;;;;;;;7.78;5.78;;;19.90;91.60;;;;;;4167375;28;20132;-66
2022/02/23 01:43:36;;;;;;;8.32;5.60;;;20.00;91.60;;;;;;4169333;28;20045;-66
2022/02/23 01:45:42;;;;;;;7.88;5.18;;;20.10;91.30;;;;;;4165918;28;20555;-66
2022/02/23 01:47:47;;;;;;;7.63;5.18;;;20.20;90.50;;;;;;4150451;28;20536;-66
2022/02/23 01:49:56;;;;;;;7.47;5.53;;;20.30;90.60;;;;;;4169941;28;20414;-66
2022/02/23 01:52:00;;;;;;;6.20;5.20;;;20.40;90.50;;;;;;4165612;28;20045;-66
2022/02/23 01:54:07;;;;;;;8.07;5.75;;;20.40;90.40;;;;;;4167922;28;20060;-67
2022/02/23 01:56:14;;;;;;;9.88;5.70;;;20.50;90.40;;;;;;4169138;28;20114;-67
2022/02/23 01:58:18;;;;;;;8.50;5.35;;;20.60;90.40;;;;;;4152424;28;20049;-67
2022/02/23 02:00:25;;;;;;;7.57;5.15;;;20.60;90.20;;;;;;4166228;28;20055;-67
2022/02/23 02:02:36;;;;;;;7.28;5.30;;;20.50;89.50;;;;;;4157765;28;20701;-67
2022/02/23 02:04:40;;;;;;;8.40;4.97;;;20.50;90.00;;;;;;4165646;28;20045;-67
2022/02/23 02:06:49;;;;;;;6.55;4.50;;;20.50;90.10;;;;;;4159794;28;20580;-67
2022/02/23 02:08:57;;;;;;;8.05;5.25;;;20.50;89.10;;;;;;4164385;28;20050;-67
2022/02/23 02:11:02;;;;;;;6.32;4.40;;;20.50;89.50;;;;;;4164025;28;20055;-67
2022/02/23 02:13:09;;;;;;;7.70;4.95;;;20.60;89.20;;;;;;4161954;28;20132;-67
2022/02/23 02:15:15;;;;;;;7.70;4.53;;;20.50;89.30;;;;;;4161750;28;20566;-67
2022/02/23 02:17:20;;;;;;;7.70;5.13;;;20.40;89.10;;;;;;4163894;28;20045;-67
2022/02/23 02:19:26;;;;;;;6.93;4.97;;;20.50;89.10;;;;;;4166284;28;20045;-67
2022/02/23 02:22:01;;;;;;;6.40;4.75;;;20.70;89.40;;;;;;4160690;28;20049;-67
2022/02/23 02:24:06;;;;;;;6.03;5.15;;;20.80;88.30;;;;;;4164777;28;20037;-67
2022/02/23 02:26:13;;;;;;;6.38;4.13;;;20.70;88.00;;;;;;4167507;28;20049;-67
2022/02/23 02:28:20;;;;;;;7.32;4.72;;;20.80;88.40;;;;;;4170687;28;20382;-66
2022/02/23 02:30:24;;;;;;;7.57;5.35;;;20.90;88.20;;;;;;4166089;28;20642;-66
2022/02/23 02:32:30;;;;;;;8.20;5.47;;;20.80;88.10;;;;;;4166337;28;20042;-66
2022/02/23 02:34:36;;;;;;;7.03;5.35;;;20.90;88.40;;;;;;4165831;28;20041;-68
2022/02/23 02:36:41;;;;;;;8.55;5.25;;;21.00;88.30;;;;;;4169077;28;20124;-66
2022/02/23 02:38:48;;;;;;;6.90;5.25;;;21.10;87.90;;;;;;4163756;28;20051;-68
2022/02/23 02:40:55;;;;;;;8.75;5.90;;;21.10;87.70;;;;;;4172038;28;20063;-63
2022/02/23 02:43:04;;;;;;;6.57;5.63;;;21.10;87.50;;;;;;4170226;28;20136;-63
2022/02/23 02:45:09;;;;;;;8.18;4.95;;;21.20;88.00;;;;;;4168499;28;20042;-63
2022/02/23 02:47:16;;;;;;;8.25;5.32;;;21.20;87.70;;;;;;4166060;28;20041;-63
2022/02/23 02:49:20;;;;;;;8.27;5.57;;;21.30;88.10;;;;;;4171339;28;20053;-63
2022/02/23 02:51:27;;;;;;;8.13;5.57;;;21.10;87.80;;;;;;4171237;28;20495;-63
2022/02/23 02:53:34;;;;;;;7.57;5.40;;;21.10;88.10;;;;;;4169347;28;20128;-63
2022/02/23 02:55:38;;;;;;;7.25;5.53;;;21.20;88.10;;;;;;4172393;28;20136;-63
2022/02/23 02:57:45;;;;;;;8.23;5.25;;;21.30;87.80;;;;;;4170198;28;20068;-63
2022/02/23 02:59:52;;;;;;;8.40;5.10;;;21.40;87.50;;;;;;4164407;28;20055;-63
2022/02/23 03:01:57;;;;;;;8.40;5.80;;;21.50;87.70;;;;;;4170677;28;20711;-64
2022/02/23 03:04:04;;;;;;;7.43;5.10;;;21.50;87.40;;;;;;4170684;28;20095;-63
2022/02/23 03:06:11;;;;;;;8.00;5.20;;;21.60;87.50;;;;;;4167007;28;20054;-63
2022/02/23 03:08:15;;;;;;;9.23;6.18;;;21.70;86.80;;;;;;4167816;28;20107;-63
2022/02/23 03:10:24;;;;;;;10.07;5.65;;;21.70;86.50;;;;;;4171119;28;20053;-63
2022/02/23 03:12:29;;;;;;;7.20;5.65;;;21.40;87.10;;;;;;4170440;28;20056;-63
2022/02/23 03:14:34;;;;;;;9.57;5.82;;;21.30;87.20;;;;;;4170905;28;20102;-63
2022/02/23 03:16:40;;;;;;;8.13;5.65;;;21.20;87.80;;;;;;4167269;28;20099;-63
2022/02/23 03:18:46;;;;;;;8.65;5.28;;;21.50;87.60;;;;;;4165489;28;20084;-63
2022/02/23 03:20:51;;;;;;;8.43;6.18;;;21.50;87.20;;;;;;4170948;28;20037;-63
2022/02/23 03:22:57;;;;;;;8.02;5.50;;;21.60;86.60;;;;;;4163711;28;20048;-63
2022/02/23 03:25:04;;;;;;;7.05;5.65;;;21.60;86.80;;;;;;4161601;28;20049;-64
2022/02/23 03:27:09;;;;;;;9.75;5.70;;;21.80;86.60;;;;;;4164644;28;20488;-63
2022/02/23 03:29:14;;;;;;;9.35;5.88;;;21.90;87.00;;;;;;4160568;28;20042;-63
2022/02/23 03:31:21;;;;;;;7.47;5.53;;;22.00;86.60;;;;;;4160118;28;20077;-63
2022/02/23 03:33:25;;;;;;;7.75;5.45;;;22.00;85.90;;;;;;4163211;28;20725;-63
2022/02/23 03:35:32;;;;;;;8.60;6.47;;;21.90;84.50;;;;;;4159534;28;20072;-63
2022/02/23 03:37:38;;;;;;;7.72;5.78;;;21.60;84.80;;;;;;4159753;28;20041;-63
2022/02/23 03:39:43;;;;;;;8.10;5.82;;;21.70;85.30;;;;;;4165835;28;20061;-62
2022/02/23 03:41:52;;;;;;;9.45;5.75;;;21.90;85.60;;;;;;4169635;28;20041;-63
2022/02/23 03:44:02;;;;;;;6.32;5.55;;;22.00;86.00;;;;;;4165309;28;20101;-63
2022/02/23 03:46:08;;;;;;;8.73;5.57;;;22.20;86.40;;;;;;4167427;28;20041;-63
2022/02/23 03:48:15;;;;;;;7.78;6.07;;;22.30;85.50;;;;;;4165106;28;20059;-63
2022/02/23 03:50:20;;;;;;;8.90;6.35;;;22.30;85.10;;;;;;4165977;28;20136;-63
2022/02/23 03:52:25;;;;;;;8.13;6.50;;;22.40;84.60;;;;;;4165315;28;20167;-63
2022/02/23 03:54:33;;;;;;;7.15;6.13;;;22.30;84.90;;;;;;4166101;28;20045;-63
2022/02/23 03:56:40;;;;;;;8.07;6.57;;;22.30;84.70;;;;;;4163625;28;20056;-63
2022/02/23 03:58:44;;;;;;;9.15;7.03;;;22.30;85.60;;;;;;4166027;28;20152;-63
2022/02/23 04:00:51;;;;;;;9.43;6.80;;;22.40;84.70;;;;;;4165799;28;20037;-63
2022/02/23 04:02:58;;;;;;;8.77;6.78;;;22.50;85.00;;;;;;4164362;28;20362;-63
2022/02/23 04:05:06;;;;;;;8.57;6.68;;;22.50;84.70;;;;;;4162220;28;20044;-63
2022/02/23 04:07:14;;;;;;;10.63;7.00;;;22.40;84.50;;;;;;4170166;28;20088;-63
2022/02/23 04:09:21;;;;;;;11.23;7.15;;;22.50;84.90;;;;;;4166329;28;20084;-63
2022/02/23 04:11:28;;;;;;;8.57;6.70;;;22.50;84.10;;;;;;4170008;28;20149;-63
2022/02/23 04:13:34;;;;;;;9.70;7.50;;;22.50;84.40;;;;;;4169579;28;20145;-63
2022/02/23 04:15:38;;;;;;;8.27;6.63;;;22.50;83.60;;;;;;4170167;28;20048;-62
2022/02/23 04:17:43;;;;;;;10.43;6.72;;;22.50;84.80;;;;;;4164068;28;20144;-63
2022/02/23 04:19:49;;;;;;;9.50;7.13;;;22.70;85.00;;;;;;4172167;28;20415;-63
2022/02/23 04:21:54;;;;;;;8.80;6.68;;;22.80;84.40;;;;;;4169771;28;20048;-63
2022/02/23 04:23:58;;;;;;;10.85;7.53;;;22.80;83.90;;;;;;4168369;28;20075;-63
2022/02/23 04:26:05;;;;;;;10.82;7.93;;;22.80;83.20;;;;;;4170351;28;20037;-63
2022/02/23 04:28:12;;;;;;;12.95;8.10;;;22.60;84.20;;;;;;4169380;28;20079;-63
2022/02/23 04:30:17;;;;;;;15.00;7.78;;;22.60;84.10;;;;;;4170202;28;20053;-63
2022/02/23 04:32:23;;;;;;;11.20;8.00;;;22.70;84.40;;;;;;4170047;28;20045;-62
2022/02/23 04:34:28;;;;;;;9.93;6.85;;;22.80;82.90;;;;;;4166641;28;20107;-62
2022/02/23 04:36:33;;;;;;;10.10;7.90;;;22.80;83.50;;;;;;4169212;28;20049;-61
2022/02/23 04:38:39;;;;;;;9.48;6.93;;;22.90;83.60;;;;;;4157174;28;20388;-61
2022/02/23 04:40:43;;;;;;;10.27;7.43;;;22.80;83.40;;;;;;4160557;28;20860;-61
2022/02/23 04:42:48;;;;;;;16.38;7.55;;;22.80;84.70;;;;;;4158811;28;20111;-62
2022/02/23 04:45:00;;;;;;;9.98;8.20;;;22.90;82.40;;;;;;4164824;28;20038;-63
2022/02/23 04:47:09;;;;;;;10.98;7.78;;;22.80;83.50;;;;;;4163394;28;20037;-62
2022/02/23 04:49:13;;;;;;;11.00;7.20;;;22.60;83.20;;;;;;4164808;28;20137;-63
2022/02/23 04:51:19;;;;;;;10.15;6.85;;;22.70;83.50;;;;;;4163834;28;20512;-61
2022/02/23 04:53:28;;;;;;;12.02;6.97;;;22.90;83.60;;;;;;4163561;28;20156;-61
2022/02/23 04:55:33;;;;;;;9.75;7.47;;;23.10;82.80;;;;;;4162196;28;20034;-61
2022/02/23 04:57:37;;;;;;;9.27;7.40;;;23.20;82.50;;;;;;4164309;28;20042;-62
2022/02/23 04:59:44;;;;;;;11.23;8.23;;;23.20;82.70;;;;;;4162972;28;20041;-62
2022/02/23 05:01:48;;;;;;;10.40;7.50;;;23.20;82.10;;;;;;4165264;28;20439;-61
2022/02/23 05:03:53;;;;;;;11.02;8.32;;;23.30;82.10;;;;;;4165289;28;20029;-62
2022/02/23 05:06:00;;;;;;;11.10;8.18;;;23.30;81.80;;;;;;4165469;28;20122;-62
2022/02/23 05:08:04;;;;;;;10.55;8.10;;;23.50;84.00;;;;;;4164533;28;20373;-62
2022/02/23 05:10:09;;;;;;;11.60;8.48;;;23.50;81.30;;;;;;4163541;28;20416;-62
2022/02/23 05:12:19;;;;;;;11.88;7.78;;;23.50;81.30;;;;;;4162226;28;20648;-62
2022/02/23 05:14:23;;;;;;;10.40;8.52;;;23.50;81.10;;;;;;4163897;28;20041;-62
2022/02/23 05:16:28;;;;;;;10.70;8.30;;;23.40;80.80;;;;;;4166509;28;20056;-61
2022/02/23 05:18:36;;;;;;;10.70;7.75;;;23.40;81.70;;;;;;4163452;28;20112;-62
2022/02/23 05:20:40;;;;;;;11.02;8.38;;;23.50;82.50;;;;;;4162220;28;20384;-62
2022/02/23 05:22:46;;;;;;;12.88;8.93;;;23.40;81.70;;;;;;4163128;28;20052;-62
2022/02/23 05:24:55;;;;;;;13.55;9.00;;;23.40;81.50;;;;;;4160862;28;20037;-62
2022/02/23 05:26:59;;;;;;;10.70;8.20;;;23.40;81.90;;;;;;4163958;28;20446;-61
2022/02/23 05:29:04;;;;;;;9.48;8.07;;;23.50;81.80;;;;;;4164932;28;20041;-61
2022/02/23 05:31:13;;;;;;;9.80;7.85;;;23.60;81.30;;;;;;4162564;28;20042;-62
2022/02/23 05:33:18;;;;;;;10.40;8.63;;;23.60;82.10;;;;;;4163544;28;20053;-62
2022/02/23 05:35:23;;;;;;;12.88;8.13;;;23.60;80.70;;;;;;4162399;28;20095;-61
2022/02/23 05:37:32;;;;;;;11.35;8.27;;;23.60;81.00;;;;;;4163800;28;20045;-62
2022/02/23 05:39:36;;;;;;;9.70;7.75;;;23.80;81.70;;;;;;4161531;28;20601;-62
2022/02/23 05:41:46;;;;;;;17.60;8.23;;;23.80;80.20;;;;;;4163374;28;20097;-64
2022/02/23 05:43:54;;;;;;;12.38;8.82;;;23.80;80.80;;;;;;4165796;28;20063;-63
2022/02/23 05:46:00;;;;;;;11.65;8.00;;;23.80;80.10;;;;;;4161677;28;20041;-64
2022/02/23 05:48:05;;;;;;;10.75;8.30;;;23.70;80.20;;;;;;4165798;28;20105;-63
2022/02/23 05:50:10;;;;;;;9.30;7.72;;;23.80;80.80;;;;;;4160560;28;20041;-63
2022/02/23 05:52:17;;;;;;;9.70;7.90;;;23.70;80.80;;;;;;4162440;28;20057;-63
2022/02/23 05:54:21;;;;;;;10.98;7.40;;;23.90;80.20;;;;;;4167776;28;20081;-64
2022/02/23 05:56:28;;;;;;;11.20;7.50;;;24.00;80.20;;;;;;4165705;28;20050;-62
2022/02/23 05:58:32;;;;;;;13.20;7.50;;;24.10;79.60;;;;;;4170058;28;20139;-62
2022/02/23 06:00:36;;;;;;;8.68;7.13;;;24.10;80.40;;;;;;4162203;28;20045;-62
2022/02/23 06:02:45;;;;;;;10.70;7.57;;;24.20;80.00;;;;;;4161450;28;20045;-60
2022/02/23 06:04:50;;;;;;;9.25;7.20;;;24.10;80.00;;;;;;4164088;28;20051;-61
2022/02/23 06:06:55;;;;;;;9.48;7.88;;;24.20;80.40;;;;;;4162210;28;20103;-61
2022/02/23 06:09:02;;;;;;;9.57;7.60;;;24.30;80.70;;;;;;4162735;28;20052;-61
2022/02/23 06:11:08;;;;;;;9.63;7.75;;;24.40;80.10;;;;;;4159906;28;20054;-62
2022/02/23 06:13:14;;;;;;;9.60;8.07;;;24.40;79.60;;;;;;4163151;28;20049;-62
2022/02/23 06:15:25;;;;;;;10.93;8.35;;;24.50;80.00;;;;;;4165824;28;20416;-61
2022/02/23 06:17:29;;;;;;;11.50;8.38;;;24.50;80.90;;;;;;4161704;28;20050;-62
2022/02/23 06:19:36;;;;;;;9.07;7.65;;;24.50;80.20;;;;;;4162142;28;20049;-61
2022/02/23 06:21:46;;;;;;;9.93;8.15;;;24.60;79.70;;;;;;4171025;28;20037;-62
2022/02/23 06:23:51;;;;;;;10.15;8.13;;;24.60;79.50;;;;;;4168531;28;20418;-62
2022/02/23 06:25:56;;;;;;;12.23;8.25;;;24.60;79.80;;;;;;4165388;28;20037;-63
2022/02/23 06:28:03;;;;;;;10.88;8.10;;;24.60;79.50;;;;;;4164231;28;20037;-62
2022/02/23 06:30:08;;;;;;;11.70;8.38;;;24.60;79.30;;;;;;4162058;28;20049;-61
2022/02/23 06:32:13;;;;;;;10.82;7.68;;;24.70;79.30;;;;;;4170027;28;20034;-61
2022/02/23 06:34:22;;;;;;;11.48;8.13;;;24.80;79.50;;;;;;4164005;28;20053;-61
2022/02/23 06:36:27;;;;;;;10.88;8.25;;;24.70;78.90;;;;;;4162505;28;20054;-62
2022/02/23 06:38:31;;;;;;;10.55;8.30;;;24.70;78.10;;;;;;4200810;28;20056;-60
2022/02/23 06:40:38;;;;;;;11.70;8.45;;;24.60;78.20;;;;;;4168422;28;20057;-62
2022/02/23 06:42:42;;;;;;;9.65;7.95;;;24.60;78.90;;;;;;4163121;28;20408;-62
2022/02/23 06:44:46;;;;;;;11.45;8.13;;;24.80;79.10;;;;;;4170267;28;20034;-61
2022/02/23 06:46:59;;;;;;;10.75;8.32;;;24.80;79.30;;;;;;4165335;28;20049;-63
2022/02/23 06:49:05;;;;;;;11.43;9.13;;;24.90;79.90;;;;;;4162942;28;20029;-62
2022/02/23 06:51:15;;;;;;;11.15;8.70;;;24.80;79.60;;;;;;4162022;28;20088;-62
2022/02/23 06:53:21;;;;;;;12.02;8.73;;;24.80;79.90;;;;;;4170450;28;20051;-61
2022/02/23 06:55:26;;;;;;;11.60;9.32;;;24.70;79.40;;;;;;4162647;28;20568;-61
2022/02/23 06:57:38;;;;;;;13.98;9.20;;;24.70;79.60;;;;;;4162143;28;20050;-62
2022/02/23 06:59:52;;;;;;;10.77;8.88;;;24.70;79.30;;;;;;4159852;28;20076;-62
2022/02/23 07:01:57;;;;;;;10.52;8.90;;;24.70;80.00;;;;;;4162026;28;20642;-61
2022/02/23 07:04:02;;;;;;;14.18;8.98;;;24.80;80.10;;;;;;4161750;28;20045;-62
2022/02/23 07:06:08;;;;;;;12.27;9.43;;;24.80;79.70;;;;;;4161914;28;20046;-62
2022/02/23 07:08:14;;;;;;;13.45;8.98;;;24.90;79.40;;;;;;4161098;28;20037;-63
2022/02/23 07:10:25;;;;;;;11.60;8.73;;;24.80;78.70;;;;;;4164720;28;20041;-62
2022/02/23 07:12:33;;;;;;;11.27;8.65;;;24.80;79.60;;;;;;4162233;28;20107;-62
2022/02/23 07:14:37;;;;;;;10.70;9.18;;;24.90;79.90;;;;;;4162569;28;20049;-62
2022/02/23 07:16:42;;;;;;;10.88;8.80;;;24.90;79.80;;;;;;4163738;28;20382;-62
2022/02/23 07:18:51;;;;;;;11.98;8.57;;;24.90;79.40;;;;;;4165580;28;20052;-61
2022/02/23 07:20:56;;;;;;;11.25;8.63;;;24.90;80.40;;;;;;4164858;28;20050;-61
2022/02/23 07:23:00;;;;;;;14.63;9.35;;;24.90;80.00;;;;;;4166764;28;20041;-60
2022/02/23 07:25:09;;;;;;;10.60;8.68;;;25.00;79.70;;;;;;4167158;28;20709;-59
2022/02/23 07:27:14;;;;;;;11.82;8.93;;;25.10;78.90;;;;;;4170153;28;20362;-62
2022/02/23 07:29:19;;;;;;;9.75;8.00;;;25.00;79.10;;;;;;4170101;28;20152;-61
2022/02/23 07:31:28;;;;;;;10.07;8.25;;;25.00;78.90;;;;;;4164499;28;20067;-61
2022/02/23 07:33:34;;;;;;;12.63;8.80;;;25.00;79.00;;;;;;4170044;28;20062;-61
2022/02/23 07:35:38;;;;;;;11.63;9.07;;;25.10;79.00;;;;;;4159723;28;20142;-61
2022/02/23 07:37:49;;;;;;;10.00;8.00;;;25.10;78.90;;;;;;4165289;28;20049;-61
2022/02/23 07:40:02;;;;;;;10.65;9.05;;;25.00;80.10;;;;;;4159816;28;20107;-60
2022/02/23 07:42:27;;;;;;;15.60;9.02;;;25.10;79.20;;;;;;4164661;28;20033;-61
2022/02/23 07:44:42;;;;;;;10.50;8.60;;;25.10;79.60;;;;;;4172020;28;20048;-62
2022/02/23 07:46:47;;;;;;;12.70;8.85;;;25.10;79.50;;;;;;4168913;28;20377;-62
2022/02/23 07:48:58;;;;;;;11.05;9.10;;;25.10;79.60;;;;;;4165155;28;20041;-63
2022/02/23 07:51:08;;;;;;;10.57;9.48;;;25.20;80.50;;;;;;4167753;28;20045;-62
2022/02/23 07:53:13;;;;;;;15.85;12.68;;;25.30;79.70;;;;;;4163793;28;20660;-62
2022/02/23 07:55:21;;;;;;;12.15;10.60;;;25.40;79.60;;;;;;4162318;28;20041;-61
2022/02/23 07:57:29;;;;;;;15.13;11.20;;;25.40;79.10;;;;;;4166333;28;20431;-62
2022/02/23 07:59:34;;;;;;;16.15;13.07;;;25.50;79.20;;;;;;4164358;28;20050;-61
2022/02/23 08:01:42;;;;;;;17.15;13.60;;;25.50;77.30;;;;;;4162866;28;20419;-62
2022/02/23 08:03:49;;;;;;;14.60;12.95;;;25.40;77.80;;;;;;4166488;28;20459;-61
2022/02/23 08:05:54;;;;;;;14.98;12.80;;;25.30;78.20;;;;;;4161286;28;20088;-61
2022/02/23 08:07:59;;;;;;;16.20;12.30;;;25.40;79.30;;;;;;4168771;28;20041;-61
2022/02/23 08:10:06;;;;;;;15.68;11.13;;;25.50;79.40;;;;;;4168382;28;20049;-60
2022/02/23 08:12:12;;;;;;;16.52;10.70;;;25.50;78.30;;;;;;4163332;28;20049;-62
2022/02/23 08:14:17;;;;;;;13.88;11.60;;;25.50;78.30;;;;;;4176516;28;20583;-62
2022/02/23 08:21:02;;;;;;;14.35;12.68;;;25.40;78.30;;;;;;4162831;28;20682;-61
2022/02/23 08:23:12;;;;;;;16.60;12.43;;;25.40;78.30;;;;;;4163286;28;20033;-62
2022/02/23 08:25:16;;;;;;;15.15;11.52;;;25.40;78.70;;;;;;4163358;28;20043;-61
2022/02/23 08:27:22;;;;;;;13.73;12.30;;;25.40;78.90;;;;;;4163672;28;20120;-62
2022/02/23 08:29:34;;;;;;;16.17;11.65;;;25.60;77.20;;;;;;4164189;28;20068;-60
2022/02/23 08:31:40;;;;;;;14.88;12.23;;;25.50;77.40;;;;;;4165127;28;20045;-61
2022/02/23 08:33:46;;;;;;;14.57;11.75;;;25.50;77.80;;;;;;4163822;28;20119;-62
2022/02/23 08:35:53;;;;;;;15.65;11.30;;;25.50;78.60;;;;;;4159675;28;20049;-61
2022/02/23 08:37:57;;;;;;;15.80;10.55;;;25.50;77.40;;;;;;4162248;28;20516;-61
2022/02/23 08:40:02;;;;;;;13.25;10.68;;;25.50;77.10;;;;;;4154186;28;20078;-62
2022/02/23 08:42:11;;;;;;;16.33;10.73;;;25.50;77.80;;;;;;4160405;28;20042;-62
2022/02/23 08:44:15;;;;;;;13.23;10.60;;;25.60;77.30;;;;;;4157254;28;20045;-61
2022/02/23 08:46:20;;;;;;;13.23;10.50;;;25.60;78.00;;;;;;4158016;28;20037;-61
2022/02/23 08:48:30;;;;;;;13.05;10.55;;;25.60;77.90;;;;;;4160609;28;20718;-62
2022/02/23 08:50:55;;;;;;;12.50;9.90;;;25.70;78.40;;;;;;4161665;28;20055;-61
2022/02/23 08:53:02;;;;;;;13.55;10.70;;;25.70;78.00;;;;;;4161965;28;20049;-62
2022/02/23 08:55:09;;;;;;;14.35;9.88;;;25.80;78.00;;;;;;4161697;28;20054;-61
2022/02/23 08:57:14;;;;;;;11.10;9.63;;;25.80;77.80;;;;;;4161207;28;20049;-61
2022/02/23 08:59:18;;;;;;;12.98;9.43;;;25.60;77.40;;;;;;4161838;28;20567;-61
2022/02/23 09:01:29;;;;;;;12.13;9.23;;;25.60;78.70;;;;;;4162081;28;20760;-61
2022/02/23 09:03:36;;;;;;;11.85;9.30;;;25.60;76.60;;;;;;4162111;28;20091;-61
2022/02/23 09:05:40;;;;;;;16.33;9.05;;;25.60;78.30;;;;;;4162110;28;20045;-61
2022/02/23 09:07:49;;;;;;;10.60;8.77;;;25.60;77.80;;;;;;4162083;28;20132;-61
2022/02/23 09:09:53;;;;;;;11.40;8.70;;;25.70;78.00;;;;;;4162252;28;20461;-61
2022/02/23 09:11:58;;;;;;;10.00;8.60;;;25.70;78.20;;;;;;4162351;28;20445;-61
2022/02/23 09:14:07;;;;;;;10.73;8.98;;;25.70;78.70;;;;;;4165227;28;20056;-61
2022/02/23 09:16:11;;;;;;;10.75;8.30;;;25.70;79.20;;;;;;4161539;28;20055;-61
2022/02/23 09:18:18;;;;;;;9.68;8.25;;;25.70;78.70;;;;;;4161688;28;20044;-61
2022/02/23 09:20:24;;;;;;;11.25;8.88;;;25.70;78.40;;;;;;4161199;28;20041;-61
2022/02/23 09:22:32;;;;;;;10.35;8.73;;;25.70;78.40;;;;;;4161164;28;20409;-61
2022/02/23 09:24:36;;;;;;;11.55;8.85;;;25.70;78.60;;;;;;4160104;28;20044;-62
2022/02/23 09:26:46;;;;;;;12.75;9.25;;;25.70;78.60;;;;;;4159818;28;20401;-61
2022/02/23 09:28:50;;;;;;;12.73;8.88;;;25.70;78.40;;;;;;4161135;28;20049;-61
2022/02/23 09:30:54;;;;;;;13.00;10.07;;;25.70;78.80;;;;;;4161849;28;20068;-61
2022/02/23 09:33:03;;;;;;;12.55;9.15;;;25.70;78.60;;;;;;4160795;28;20042;-62
2022/02/23 09:35:09;;;;;;;10.07;9.05;;;25.70;78.20;;;;;;4159549;28;20057;-61
2022/02/23 09:37:14;;;;;;;11.35;8.93;;;25.70;78.50;;;;;;4159544;28;20049;-61
2022/02/23 09:39:24;;;;;;;9.80;8.73;;;25.60;78.50;;;;;;4161609;28;20047;-62
2022/02/23 09:41:30;;;;;;;10.70;8.73;;;25.70;78.90;;;;;;4160846;28;20107;-62
2022/02/23 09:43:35;;;;;;;12.43;9.50;;;25.60;78.60;;;;;;4161352;28;20469;-62
2022/02/23 09:45:46;;;;;;;11.70;9.13;;;25.70;78.60;;;;;;4161551;28;20038;-62
2022/02/23 09:47:54;;;;;;;13.13;10.60;;;25.70;78.70;;;;;;4161469;28;20117;-62
2022/02/23 09:50:00;;;;;;;12.25;9.65;;;25.70;78.40;;;;;;4161593;28;20069;-62
2022/02/23 09:52:09;;;;;;;14.00;10.07;;;25.60;78.00;;;;;;4160399;28;20627;-62
2022/02/23 09:54:14;;;;;;;13.00;10.13;;;25.60;78.30;;;;;;4161513;28;20461;-62
2022/02/23 09:56:19;;;;;;;16.52;11.70;;;25.60;78.20;;;;;;4161282;28;20053;-62
2022/02/23 09:58:28;;;;;;;12.75;9.98;;;25.60;78.40;;;;;;4160998;28;20060;-62
2022/02/23 10:00:38;;;;;;;14.25;10.73;;;25.60;78.20;;;;;;4158276;28;20049;-62
2022/02/23 10:02:43;;;;;;;13.35;10.20;;;25.60;77.50;;;;;;4161512;28;20067;-62
2022/02/23 10:04:51;;;;;;;13.20;10.30;;;25.50;78.10;;;;;;4159870;28;20838;-61
2022/02/23 10:07:02;;;;;;;14.65;10.40;;;25.50;78.10;;;;;;4161137;28;20049;-62
2022/02/23 10:09:09;;;;;;;15.45;10.52;;;25.60;78.10;;;;;;4159955;28;20045;-62
2022/02/23 10:11:19;;;;;;;15.13;11.25;;;25.60;78.50;;;;;;4166536;28;20496;-61
2022/02/23 10:13:25;;;;;;;13.85;10.82;;;25.50;78.60;;;;;;4165048;28;20073;-61
2022/02/23 10:15:31;;;;;;;14.10;11.18;;;25.50;78.50;;;;;;4162191;28;20059;-61
2022/02/23 10:17:47;;;;;;;14.15;11.20;;;25.50;78.50;;;;;;4160781;28;20045;-61
2022/02/23 10:19:55;;;;;;;13.38;11.27;;;25.50;78.20;;;;;;4160559;28;20037;-61
2022/02/23 10:22:01;;;;;;;14.60;11.68;;;25.50;78.10;;;;;;4166423;28;20641;-62
2022/02/23 10:24:24;;;;;;;15.15;11.50;;;25.50;77.80;;;;;;4160975;28;20547;-61
2022/02/23 10:26:32;;;;;;;15.00;11.80;;;25.40;77.90;;;;;;4160152;28;20095;-62
2022/02/23 10:28:37;;;;;;;17.38;11.25;;;25.40;78.20;;;;;;4161071;28;20553;-61
2022/02/23 10:30:53;;;;;;;15.93;12.25;;;25.40;78.40;;;;;;4157613;28;20124;-61
2022/02/23 10:32:59;;;;;;;;;;;25.40;78.70;;;;;;4159605;28;20119;-62
2022/02/23 10:35:07;;;;;;;20.20;13.63;;;25.40;78.90;;;;;;4167883;28;19987;-62
2022/02/23 10:37:17;;;;;;;19.70;12.88;;;25.30;79.00;;;;;;4161157;28;20121;-62
2022/02/23 10:39:23;;;;;;;16.55;11.85;;;25.30;79.10;;;;;;4159106;28;20037;-62
2022/02/23 10:41:32;;;;;;;16.40;12.38;;;25.30;78.90;;;;;;4164296;28;20152;-62
2022/02/23 10:43:44;;;;;;;15.75;11.55;;;25.30;78.90;;;;;;4161933;28;20077;-62
2022/02/23 10:46:00;;;;;;;14.25;11.50;;;25.30;79.00;;;;;;4159950;28;20050;-62
2022/02/23 10:48:07;;;;;;;14.93;11.90;;;25.20;79.00;;;;;;4162110;28;20060;-62
2022/02/23 10:50:16;;;;;;;19.00;12.77;;;25.20;79.10;;;;;;4164300;28;20488;-62
2022/02/23 10:52:22;;;;;;;19.73;13.60;;;25.20;79.50;;;;;;4164271;28;20132;-62
2022/02/23 10:54:27;;;;;;;20.77;13.65;;;25.10;79.70;;;;;;4161343;28;20042;-62
2022/02/23 10:56:33;;;;;;;17.13;13.20;;;25.10;79.80;;;;;;4163556;28;20053;-62